Time;durP1;ratioP1;P1;durP2;ratioP2;P2;SDS_P1;SDS_P2;PMS_P1;PMS_P2;Temp;Humidity;BMP_temperature;BMP_pressure;BME280_temperature;BME280_humidity;BME280_pressure;Samples;Min_cycle;Max_cycle;Signal;HPM_P1;HPM_P2
2022/03/06 00:00:51;;;;;;;;;;;;;;;;;;4220595;28;1012;-58
2022/03/06 00:03:12;;;;;;;;;;;;;;;;;;4220517;28;996;-58
2022/03/06 00:05:32;;;;;;;;;;;;;;;;;;4220533;28;930;-57
2022/03/06 00:07:56;;;;;;;;;;;;;;;;;;4220541;28;821;-58
2022/03/06 00:10:16;;;;;;;;;;;;;;;;;;4220555;28;755;-58
2022/03/06 00:12:37;;;;;;;;;;;;;;;;;;4220371;28;1985;-58
2022/03/06 00:14:58;;;;;;;;;;;;;;;;;;4220437;28;845;-58
2022/03/06 00:17:18;;;;;;;;;;;;;;;;;;4220184;28;841;-58
2022/03/06 00:19:39;;;;;;;;;;;;;;;;;;4218899;28;1076;-58
2022/03/06 00:21:59;;;;;;;;;;;;;;;;;;4219881;28;933;-58
2022/03/06 00:24:20;;;;;;;;;;;;;;;;;;4219907;28;833;-58
2022/03/06 00:26:41;;;;;;;;;;;;;;;;;;4220015;28;943;-58
2022/03/06 00:29:01;;;;;;;;;;;;;;;;;;4220069;28;1057;-58
2022/03/06 00:31:22;;;;;;;;;;;;;;;;;;4220216;28;874;-58
2022/03/06 00:33:43;;;;;;;;;;;;;;;;;;4221916;28;1967;-58
2022/03/06 00:36:04;;;;;;;;;;;;;;;;;;4222918;28;1017;-58
2022/03/06 00:38:24;;;;;;;;;;;;;;;;;;4222794;28;1271;-57
2022/03/06 00:40:45;;;;;;;;;;;;;;;;;;4211201;28;1140;-58
2022/03/06 00:43:05;;;;;;;;;;;;;;;;;;4206224;28;820;-57
2022/03/06 00:45:26;;;;;;;;;;;;;;;;;;4205714;28;834;-58
2022/03/06 00:47:47;;;;;;;;;;;;;;;;;;4206094;28;887;-58
2022/03/06 00:50:07;;;;;;;;;;;;;;;;;;4205847;28;826;-57
2022/03/06 00:52:28;;;;;;;;;;;;;;;;;;4205408;28;1992;-58
2022/03/06 00:54:49;;;;;;;;;;;;;;;;;;4205806;28;1119;-59
2022/03/06 00:57:09;;;;;;;;;;;;;;;;;;4206040;28;922;-58
2022/03/06 00:59:34;;;;;;;;;;;;;;;;;;4206034;28;925;-58
2022/03/06 01:01:55;;;;;;;;;;;;;;;;;;4205865;28;814;-58
2022/03/06 01:04:16;;;;;;;;;;;;;;;;;;4206025;28;1000;-58
2022/03/06 01:06:37;;;;;;;;;;;;;;;;;;4206069;28;1105;-58
2022/03/06 01:08:57;;;;;;;;;;;;;;;;;;4205686;28;1144;-58
2022/03/06 01:11:18;;;;;;;;;;;;;;;;;;4206166;28;951;-58
2022/03/06 01:13:38;;;;;;;;;;;;;;;;;;4206184;28;1918;-58
2022/03/06 01:15:59;;;;;;;;;;;;;;;;;;4205925;28;986;-59
2022/03/06 01:18:20;;;;;;;;;;;;;;;;;;4206025;28;832;-58
2022/03/06 01:20:41;;;;;;;;;;;;;;;;;;4206026;28;933;-58
2022/03/06 01:23:02;;;;;;;;;;;;;;;;;;4205863;28;833;-57
2022/03/06 01:25:22;;;;;;;;;;;;;;;;;;4205794;28;826;-58
2022/03/06 01:27:43;;;;;;;;;;;;;;;;;;4205660;28;826;-58
2022/03/06 01:30:05;;;;;;;;;;;;;;;;;;4205760;28;983;-58
2022/03/06 01:32:26;;;;;;;;;;;;;;;;;;4205755;28;1981;-58
2022/03/06 01:34:47;;;;;;;;;;;;;;;;;;4205768;28;916;-58
2022/03/06 01:37:08;;;;;;;;;;;;;;;;;;4205400;28;1198;-58
2022/03/06 01:39:29;;;;;;;;;;;;;;;;;;4205419;28;1100;-57
2022/03/06 01:41:49;;;;;;;;;;;;;;;;;;4205378;28;755;-58
2022/03/06 01:44:10;;;;;;;;;;;;;;;;;;4204833;28;939;-58
2022/03/06 01:46:31;;;;;;;;;;;;;;;;;;4205107;28;834;-58
2022/03/06 01:48:52;;;;;;;;;;;;;;;;;;4203646;28;1191;-58
2022/03/06 01:51:13;;;;;;;;;;;;;;;;;;4205182;28;943;-58
2022/03/06 01:53:33;;;;;;;;;;;;;;;;;;4204502;28;1978;-59
2022/03/06 01:55:54;;;;;;;;;;;;;;;;;;4205408;28;871;-58
2022/03/06 01:58:15;;;;;;;;;;;;;;;;;;4217971;28;1018;-58
2022/03/06 02:04:05;;;;;;;;;;;;;;;;;;4204452;28;1112;-58
2022/03/06 02:06:25;;;;;;;;;;;;;;;;;;4204582;28;1207;-59
2022/03/06 02:08:46;;;;;;;;;;;;;;;;;;4219272;28;999;-58
2022/03/06 02:11:07;;;;;;;;;;;;;;;;;;4209348;28;1173;-57
2022/03/06 02:13:28;;;;;;;;;;;;;;;;;;4204103;28;1882;-58
2022/03/06 02:15:48;;;;;;;;;;;;;;;;;;4204499;28;923;-57
2022/03/06 02:18:09;;;;;;;;;;;;;;;;;;4208797;28;1258;-58
2022/03/06 02:20:30;;;;;;;;;;;;;;;;;;4221012;28;1016;-58
2022/03/06 02:22:50;;;;;;;;;;;;;;;;;;4221375;28;1089;-58
2022/03/06 02:25:11;;;;;;;;;;;;;;;;;;4220238;28;920;-58
2022/03/06 02:27:32;;;;;;;;;;;;;;;;;;4220957;28;944;-59
2022/03/06 02:29:52;;;;;;;;;;;;;;;;;;4221015;28;1202;-58
2022/03/06 02:32:13;;;;;;;;;;;;;;;;;;4221056;28;953;-58
2022/03/06 02:34:34;;;;;;;;;;;;;;;;;;4220847;28;1968;-58
2022/03/06 02:36:54;;;;;;;;;;;;;;;;;;4221036;28;1162;-57
2022/03/06 02:39:15;;;;;;;;;;;;;;;;;;4221077;28;1076;-58
2022/03/06 02:41:38;;;;;;;;;;;;;;;;;;4220896;28;1237;-57
2022/03/06 02:43:59;;;;;;;;;;;;;;;;;;4220625;28;1238;-58
2022/03/06 02:46:19;;;;;;;;;;;;;;;;;;4221196;28;1251;-58
2022/03/06 02:48:40;;;;;;;;;;;;;;;;;;4220962;28;976;-57
2022/03/06 02:51:01;;;;;;;;;;;;;;;;;;4221105;28;1098;-57
2022/03/06 02:53:23;;;;;;;;;;;;;;;;;;4221156;28;1984;-58
2022/03/06 02:55:44;;;;;;;;;;;;;;;;;;4220232;28;994;-58
2022/03/06 02:58:05;;;;;;;;;;;;;;;;;;4220855;28;855;-58
2022/03/06 03:00:26;;;;;;;;;;;;;;;;;;4221316;28;1023;-58
2022/03/06 03:02:46;;;;;;;;;;;;;;;;;;4221072;28;1245;-58
2022/03/06 03:05:07;;;;;;;;;;;;;;;;;;4220554;28;1244;-57
2022/03/06 03:07:28;;;;;;;;;;;;;;;;;;4220714;28;992;-59
2022/03/06 03:09:49;;;;;;;;;;;;;;;;;;4221087;28;965;-58
2022/03/06 03:12:09;;;;;;;;;;;;;;;;;;4221117;28;859;-58
2022/03/06 03:14:32;;;;;;;;;;;;;;;;;;4220846;28;1988;-58
2022/03/06 03:16:53;;;;;;;;;;;;;;;;;;4220763;28;955;-58
2022/03/06 03:19:14;;;;;;;;;;;;;;;;;;4220688;28;1124;-58
2022/03/06 03:21:35;;;;;;;;;;;;;;;;;;4220770;28;997;-58
2022/03/06 03:23:56;;;;;;;;;;;;;;;;;;4220901;28;899;-58
2022/03/06 03:26:16;;;;;;;;;;;;;;;;;;4220973;28;962;-58
2022/03/06 03:28:37;;;;;;;;;;;;;;;;;;4220438;28;840;-57
2022/03/06 03:30:58;;;;;;;;;;;;;;;;;;4220315;28;986;-57
2022/03/06 03:33:19;;;;;;;;;;;;;;;;;;4220423;28;1910;-58
2022/03/06 03:35:39;;;;;;;;;;;;;;;;;;4204934;28;866;-58
2022/03/06 03:38:00;;;;;;;;;;;;;;;;;;4220398;28;963;-58
2022/03/06 03:40:20;;;;;;;;;;;;;;;;;;4220405;28;1132;-57
2022/03/06 03:42:41;;;;;;;;;;;;;;;;;;4220154;28;1108;-58
2022/03/06 03:45:02;;;;;;;;;;;;;;;;;;4220865;28;989;-58
2022/03/06 03:47:23;;;;;;;;;;;;;;;;;;4220806;28;876;-57
2022/03/06 03:49:43;;;;;;;;;;;;;;;;;;4220753;28;836;-58
2022/03/06 03:52:04;;;;;;;;;;;;;;;;;;4220229;28;1156;-58
2022/03/06 03:54:25;;;;;;;;;;;;;;;;;;4220623;28;1955;-58
2022/03/06 03:56:45;;;;;;;;;;;;;;;;;;4220573;28;903;-57
2022/03/06 03:59:06;;;;;;;;;;;;;;;;;;4220458;28;809;-58
2022/03/06 04:01:28;;;;;;;;;;;;;;;;;;4220362;28;938;-57
2022/03/06 04:03:48;;;;;;;;;;;;;;;;;;4220520;28;926;-58
2022/03/06 04:06:09;;;;;;;;;;;;;;;;;;4220236;28;802;-57
2022/03/06 04:08:29;;;;;;;;;;;;;;;;;;4220563;28;864;-58
2022/03/06 04:10:50;;;;;;;;;;;;;;;;;;4220377;28;911;-57
2022/03/06 04:13:11;;;;;;;;;;;;;;;;;;4220324;28;905;-58
2022/03/06 04:15:32;;;;;;;;;;;;;;;;;;4220451;28;778;-58
2022/03/06 04:17:52;;;;;;;;;;;;;;;;;;4220287;28;949;-58
2022/03/06 04:20:13;;;;;;;;;;;;;;;;;;4220176;28;1125;-58
2022/03/06 04:22:34;;;;;;;;;;;;;;;;;;4220245;28;1013;-58
2022/03/06 04:24:54;;;;;;;;;;;;;;;;;;4220448;28;936;-58
2022/03/06 04:27:15;;;;;;;;;;;;;;;;;;4220115;28;947;-58
2022/03/06 04:29:36;;;;;;;;;;;;;;;;;;4219095;28;920;-57
2022/03/06 04:31:57;;;;;;;;;;;;;;;;;;4204577;28;1033;-58
2022/03/06 04:34:17;;;;;;;;;;;;;;;;;;4219988;28;1906;-58
2022/03/06 04:36:38;;;;;;;;;;;;;;;;;;4220135;28;888;-57
2022/03/06 04:38:59;;;;;;;;;;;;;;;;;;4218845;28;1347;-58
2022/03/06 04:41:19;;;;;;;;;;;;;;;;;;4219522;28;1113;-58
2022/03/06 04:43:40;;;;;;;;;;;;;;;;;;4204268;28;1055;-57
2022/03/06 04:46:01;;;;;;;;;;;;;;;;;;4219338;28;1679;-58
2022/03/06 04:48:21;;;;;;;;;;;;;;;;;;4219681;28;938;-58
2022/03/06 04:50:42;;;;;;;;;;;;;;;;;;4219989;28;957;-58
2022/03/06 04:53:02;;;;;;;;;;;;;;;;;;4219434;28;990;-58
2022/03/06 04:55:23;;;;;;;;;;;;;;;;;;4219611;28;1905;-58
2022/03/06 04:57:46;;;;;;;;;;;;;;;;;;4219655;28;965;-58
2022/03/06 05:00:07;;;;;;;;;;;;;;;;;;4219465;28;857;-58
2022/03/06 05:02:27;;;;;;;;;;;;;;;;;;4219447;28;937;-58
2022/03/06 05:04:48;;;;;;;;;;;;;;;;;;4219604;28;956;-58
2022/03/06 05:07:08;;;;;;;;;;;;;;;;;;4219764;28;837;-58
2022/03/06 05:09:29;;;;;;;;;;;;;;;;;;4219710;28;832;-58
2022/03/06 05:11:50;;;;;;;;;;;;;;;;;;4219762;28;923;-58
2022/03/06 05:14:10;;;;;;;;;;;;;;;;;;4219784;28;1902;-58
2022/03/06 05:16:31;;;;;;;;;;;;;;;;;;4219638;28;822;-58
2022/03/06 05:18:52;;;;;;;;;;;;;;;;;;4220295;28;991;-58
2022/03/06 05:21:12;;;;;;;;;;;;;;;;;;4222813;28;931;-58
2022/03/06 05:23:33;;;;;;;;;;;;;;;;;;4222796;28;927;-58
2022/03/06 05:25:54;;;;;;;;;;;;;;;;;;4222759;28;1011;-57
2022/03/06 05:28:15;;;;;;;;;;;;;;;;;;4222612;28;1003;-58
2022/03/06 05:30:36;;;;;;;;;;;;;;;;;;4222848;28;1011;-58
2022/03/06 05:32:56;;;;;;;;;;;;;;;;;;4207349;28;888;-58
2022/03/06 05:35:17;;;;;;;;;;;;;;;;;;4222813;28;1910;-58
2022/03/06 05:37:37;;;;;;;;;;;;;;;;;;4222730;28;1224;-58
2022/03/06 05:39:58;;;;;;;;;;;;;;;;;;4208373;28;1321;-58
2022/03/06 05:42:19;;;;;;;;;;;;;;;;;;4206009;28;831;-58
2022/03/06 05:44:40;;;;;;;;;;;;;;;;;;4205614;28;878;-58
2022/03/06 05:47:00;;;;;;;;;;;;;;;;;;4203948;28;950;-58
2022/03/06 05:49:21;;;;;;;;;;;;;;;;;;4205639;28;1039;-58
2022/03/06 05:51:41;;;;;;;;;;;;;;;;;;4205562;28;957;-58
2022/03/06 05:54:02;;;;;;;;;;;;;;;;;;4205211;28;1915;-58
2022/03/06 05:56:22;;;;;;;;;;;;;;;;;;4205570;28;935;-57
2022/03/06 05:58:43;;;;;;;;;;;;;;;;;;4204307;28;938;-58
2022/03/06 06:01:04;;;;;;;;;;;;;;;;;;4205492;28;995;-58
2022/03/06 06:03:25;;;;;;;;;;;;;;;;;;4205529;28;1101;-58
2022/03/06 06:05:46;;;;;;;;;;;;;;;;;;4205280;28;835;-58
2022/03/06 06:08:07;;;;;;;;;;;;;;;;;;4221671;28;1228;-58
2022/03/06 06:10:27;;;;;;;;;;;;;;;;;;4222299;28;872;-58
2022/03/06 06:12:48;;;;;;;;;;;;;;;;;;4221925;28;1013;-58
2022/03/06 06:15:09;;;;;;;;;;;;;;;;;;4220065;28;1906;-58
2022/03/06 06:17:29;;;;;;;;;;;;;;;;;;4218885;28;2010;-58
2022/03/06 06:19:50;;;;;;;;;;;;;;;;;;4217699;28;1209;-58
2022/03/06 06:22:10;;;;;;;;;;;;;;;;;;4204798;28;1092;-58
2022/03/06 06:24:31;;;;;;;;;;;;;;;;;;4211815;28;1485;-59
2022/03/06 06:26:54;;;;;;;;;;;;;;;;;;4218832;28;1262;-59
2022/03/06 06:29:15;;;;;;;;;;;;;;;;;;4217848;28;1740;-57
2022/03/06 06:31:36;;;;;;;;;;;;;;;;;;4212928;28;2155;-58
2022/03/06 06:33:56;;;;;;;;;;;;;;;;;;4212843;28;1920;-58
2022/03/06 06:36:17;;;;;;;;;;;;;;;;;;4217016;28;1633;-58
2022/03/06 06:38:38;;;;;;;;;;;;;;;;;;4210991;28;1449;-58
2022/03/06 06:40:58;;;;;;;;;;;;;;;;;;4221246;28;859;-58
2022/03/06 06:43:19;;;;;;;;;;;;;;;;;;4221408;28;1117;-58
2022/03/06 06:45:40;;;;;;;;;;;;;;;;;;4217049;28;1392;-58
2022/03/06 06:48:02;;;;;;;;;;;;;;;;;;4213750;28;1085;-58
2022/03/06 06:50:23;;;;;;;;;;;;;;;;;;4221269;28;830;-58
2022/03/06 06:52:44;;;;;;;;;;;;;;;;;;4205946;28;1047;-58
2022/03/06 06:55:05;;;;;;;;;;;;;;;;;;4221091;28;1906;-58
2022/03/06 06:57:26;;;;;;;;;;;;;;;;;;4221388;28;902;-58
2022/03/06 06:59:47;;;;;;;;;;;;;;;;;;4221407;28;1034;-58
2022/03/06 07:02:07;;;;;;;;;;;;;;;;;;4205942;28;874;-58
2022/03/06 07:04:28;;;;;;;;;;;;;;;;;;4221290;28;848;-58
2022/03/06 07:06:49;;;;;;;;;;;;;;;;;;4198703;28;1272;-58
2022/03/06 07:09:09;;;;;;;;;;;;;;;;;;4220626;28;974;-58
2022/03/06 07:11:30;;;;;;;;;;;;;;;;;;4221123;28;869;-58
2022/03/06 07:13:51;;;;;;;;;;;;;;;;;;4220119;28;1255;-59
2022/03/06 07:16:12;;;;;;;;;;;;;;;;;;4219766;28;1906;-58
2022/03/06 07:18:33;;;;;;;;;;;;;;;;;;4219990;28;899;-59
2022/03/06 07:20:53;;;;;;;;;;;;;;;;;;4219793;28;821;-60
2022/03/06 07:23:14;;;;;;;;;;;;;;;;;;4203052;28;1022;-58
2022/03/06 07:25:35;;;;;;;;;;;;;;;;;;4203892;28;1115;-58
2022/03/06 07:27:56;;;;;;;;;;;;;;;;;;4203095;28;1137;-58
2022/03/06 07:30:16;;;;;;;;;;;;;;;;;;4201607;28;1003;-59
2022/03/06 07:32:37;;;;;;;;;;;;;;;;;;4213524;28;1549;-58
2022/03/06 07:34:58;;;;;;;;;;;;;;;;;;4219327;28;1906;-58
2022/03/06 07:37:19;;;;;;;;;;;;;;;;;;4218185;28;1133;-58
2022/03/06 07:39:40;;;;;;;;;;;;;;;;;;4219099;28;1076;-58
2022/03/06 07:42:01;;;;;;;;;;;;;;;;;;4218000;28;955;-58
2022/03/06 07:44:22;;;;;;;;;;;;;;;;;;4216018;28;1401;-58
2022/03/06 07:46:43;;;;;;;;;;;;;;;;;;4218914;28;1041;-58
2022/03/06 07:49:06;;;;;;;;;;;;;;;;;;4219271;28;1124;-58
2022/03/06 07:51:26;;;;;;;;;;;;;;;;;;4218814;28;1062;-58
2022/03/06 07:53:47;;;;;;;;;;;;;;;;;;4219399;28;945;-58
2022/03/06 07:56:08;;;;;;;;;;;;;;;;;;4203591;28;1913;-58
2022/03/06 07:58:28;;;;;;;;;;;;;;;;;;4219091;28;817;-59
2022/03/06 08:00:49;;;;;;;;;;;;;;;;;;4218585;28;1101;-58
2022/03/06 08:03:10;;;;;;;;;;;;;;;;;;4217800;28;943;-58
2022/03/06 08:05:31;;;;;;;;;;;;;;;;;;4219071;28;978;-61
2022/03/06 08:07:52;;;;;;;;;;;;;;;;;;4218422;28;1094;-57
2022/03/06 08:10:13;;;;;;;;;;;;;;;;;;4219112;28;928;-57
2022/03/06 08:12:33;;;;;;;;;;;;;;;;;;4218090;28;957;-58
2022/03/06 08:14:54;;;;;;;;;;;;;;;;;;4219000;28;1901;-57
2022/03/06 08:17:16;;;;;;;;;;;;;;;;;;4218938;28;908;-58
2022/03/06 08:19:37;;;;;;;;;;;;;;;;;;4218791;28;822;-58
2022/03/06 08:21:58;;;;;;;;;;;;;;;;;;4218521;28;1148;-57
2022/03/06 08:24:19;;;;;;;;;;;;;;;;;;4219141;28;818;-57
2022/03/06 08:26:39;;;;;;;;;;;;;;;;;;4218824;28;892;-57
2022/03/06 08:29:00;;;;;;;;;;;;;;;;;;4217944;28;1061;-58
2022/03/06 08:31:20;;;;;;;;;;;;;;;;;;4217459;28;1351;-57
2022/03/06 08:33:41;;;;;;;;;;;;;;;;;;4201941;28;821;-58
2022/03/06 08:36:02;;;;;;;;;;;;;;;;;;4202127;28;1910;-58
2022/03/06 08:38:23;;;;;;;;;;;;;;;;;;4201635;28;826;-58
2022/03/06 08:40:44;;;;;;;;;;;;;;;;;;4201765;28;936;-59
2022/03/06 08:43:05;;;;;;;;;;;;;;;;;;4202356;28;1144;-59
2022/03/06 08:45:26;;;;;;;;;;;;;;;;;;4218237;28;838;-59
2022/03/06 08:47:46;;;;;;;;;;;;;;;;;;4218657;28;938;-59
2022/03/06 08:50:07;;;;;;;;;;;;;;;;;;4218512;28;929;-60
2022/03/06 08:52:27;;;;;;;;;;;;;;;;;;4218084;28;1101;-60
2022/03/06 08:54:48;;;;;;;;;;;;;;;;;;4220378;28;934;-60
2022/03/06 08:57:09;;;;;;;;;;;;;;;;;;4221300;28;905;-59
2022/03/06 08:59:29;;;;;;;;;;;;;;;;;;4221311;28;947;-59
2022/03/06 09:01:55;;;;;;;;;;;;;;;;;;4216979;28;1753;-59
2022/03/06 09:04:16;;;;;;;;;;;;;;;;;;4203620;28;1988;-59
2022/03/06 09:06:36;;;;;;;;;;;;;;;;;;4215249;28;1502;-59
2022/03/06 09:08:57;;;;;;;;;;;;;;;;;;4204507;28;818;-60
2022/03/06 09:11:18;;;;;;;;;;;;;;;;;;4204190;28;983;-59
2022/03/06 09:13:39;;;;;;;;;;;;;;;;;;4203350;28;833;-59
2022/03/06 09:15:59;;;;;;;;;;;;;;;;;;4203970;28;1976;-59
2022/03/06 09:18:20;;;;;;;;;;;;;;;;;;4203445;28;948;-60
2022/03/06 09:20:41;;;;;;;;;;;;;;;;;;4220678;28;1101;-59
2022/03/06 09:23:03;;;;;;;;;;;;;;;;;;4218783;28;1257;-60
2022/03/06 09:25:23;;;;;;;;;;;;;;;;;;4212296;28;1399;-60
2022/03/06 09:27:44;;;;;;;;;;;;;;;;;;4221093;28;899;-59
2022/03/06 09:30:05;;;;;;;;;;;;;;;;;;4221391;28;1092;-59
2022/03/06 09:32:26;;;;;;;;;;;;;;;;;;4221192;28;1833;-60
2022/03/06 09:34:47;;;;;;;;;;;;;;;;;;4212903;28;1645;-59
2022/03/06 09:37:08;;;;;;;;;;;;;;;;;;4209155;28;1979;-59
2022/03/06 09:39:29;;;;;;;;;;;;;;;;;;4209504;28;2457;-59
2022/03/06 09:41:50;;;;;;;;;;;;;;;;;;4186301;28;861;-59
2022/03/06 09:44:12;;;;;;;;;;;;;;;;;;4185169;28;987;-59
2022/03/06 09:46:33;;;;;;;;;;;;;;;;;;4195548;28;2832;-59
2022/03/06 09:48:54;;;;;;;;;;;;;;;;;;4177874;28;1217;-59
2022/03/06 09:51:15;;;;;;;;;;;;;;;;;;4185705;28;1036;-59
2022/03/06 09:53:36;;;;;;;;;;;;;;;;;;4186707;28;996;-59
2022/03/06 09:55:57;;;;;;;;;;;;;;;;;;4186651;28;1914;-59
2022/03/06 09:58:18;;;;;;;;;;;;;;;;;;4186785;28;1020;-59
2022/03/06 10:00:39;;;;;;;;;;;;;;;;;;4185761;28;893;-59
2022/03/06 10:03:00;;;;;;;;;;;;;;;;;;4186963;28;1248;-59
2022/03/06 10:05:21;;;;;;;;;;;;;;;;;;4183734;28;981;-59
2022/03/06 10:07:41;;;;;;;;;;;;;;;;;;4186655;28;1052;-59
2022/03/06 10:10:02;;;;;;;;;;;;;;;;;;4186767;28;965;-59
2022/03/06 10:12:23;;;;;;;;;;;;;;;;;;4186644;28;995;-59
2022/03/06 10:14:44;;;;;;;;;;;;;;;;;;4185743;28;858;-59
2022/03/06 10:17:05;;;;;;;;;;;;;;;;;;4186695;28;1971;-59
2022/03/06 10:19:26;;;;;;;;;;;;;;;;;;4170401;28;995;-59
2022/03/06 10:21:47;;;;;;;;;;;;;;;;;;4174866;28;1060;-60
2022/03/06 10:24:08;;;;;;;;;;;;;;;;;;4199789;28;929;-59
2022/03/06 10:26:30;;;;;;;;;;;;;;;;;;4186683;28;1026;-59
2022/03/06 10:28:51;;;;;;;;;;;;;;;;;;4199681;28;956;-59
2022/03/06 10:31:11;;;;;;;;;;;;;;;;;;4186753;28;1488;-59
2022/03/06 10:33:33;;;;;;;;;;;;;;;;;;4186049;28;1461;-59
2022/03/06 10:35:58;;;;;;;;;;;;;;;;;;4186083;28;1905;-60
2022/03/06 10:38:19;;;;;;;;;;;;;;;;;;4185739;28;989;-60
2022/03/06 10:40:40;;;;;;;;;;;;;;;;;;4186249;28;940;-59
2022/03/06 10:43:02;;;;;;;;;;;;;;;;;;4185697;28;987;-59
2022/03/06 10:45:23;;;;;;;;;;;;;;;;;;4186829;28;1936;-59
2022/03/06 10:47:44;;;;;;;;;;;;;;;;;;4187246;28;1200;-59
2022/03/06 10:50:05;;;;;;;;;;;;;;;;;;4187649;28;838;-59
2022/03/06 10:52:26;;;;;;;;;;;;;;;;;;4176941;28;1118;-59
2022/03/06 10:54:47;;;;;;;;;;;;;;;;;;4171125;28;933;-59
2022/03/06 10:57:08;;;;;;;;;;;;;;;;;;4171085;28;1906;-59
2022/03/06 10:59:28;;;;;;;;;;;;;;;;;;4170848;28;1369;-59
2022/03/06 11:01:49;;;;;;;;;;;;;;;;;;4170646;28;822;-59
2022/03/06 11:04:10;;;;;;;;;;;;;;;;;;4171072;28;961;-59
2022/03/06 11:06:31;;;;;;;;;;;;;;;;;;4170756;28;1228;-59
2022/03/06 11:08:53;;;;;;;;;;;;;;;;;;4170890;28;1199;-59
2022/03/06 11:11:13;;;;;;;;;;;;;;;;;;4179946;28;1084;-59
2022/03/06 11:13:34;;;;;;;;;;;;;;;;;;4186435;28;841;-59
2022/03/06 11:15:55;;;;;;;;;;;;;;;;;;4185439;28;897;-61
2022/03/06 11:18:16;;;;;;;;;;;;;;;;;;4186058;28;1277;-59
2022/03/06 11:20:37;;;;;;;;;;;;;;;;;;4187498;28;925;-59
2022/03/06 11:22:58;;;;;;;;;;;;;;;;;;4172780;28;1044;-59
2022/03/06 11:25:20;;;;;;;;;;;;;;;;;;4182611;28;1711;-59
2022/03/06 11:27:41;;;;;;;;;;;;;;;;;;4181820;28;1443;-61
2022/03/06 11:30:02;;;;;;;;;;;;;;;;;;4168625;28;994;-59
2022/03/06 11:32:24;;;;;;;;;;;;;;;;;;4179531;28;1681;-59
2022/03/06 11:34:46;;;;;;;;;;;;;;;;;;4186216;28;939;-59
2022/03/06 11:37:06;;;;;;;;;;;;;;;;;;4184369;28;1914;-59
2022/03/06 11:39:29;;;;;;;;;;;;;;;;;;4200497;28;1610;-59
2022/03/06 11:41:50;;;;;;;;;;;;;;;;;;4219273;28;844;-59
2022/03/06 11:44:10;;;;;;;;;;;;;;;;;;4219531;28;877;-59
2022/03/06 11:46:31;;;;;;;;;;;;;;;;;;4219199;28;1058;-58
2022/03/06 11:48:52;;;;;;;;;;;;;;;;;;4219469;28;1283;-59
2022/03/06 11:51:13;;;;;;;;;;;;;;;;;;4219458;28;1111;-59
2022/03/06 11:53:34;;;;;;;;;;;;;;;;;;4219409;28;893;-59
2022/03/06 11:55:55;;;;;;;;;;;;;;;;;;4203775;28;855;-60
2022/03/06 11:58:17;;;;;;;;;;;;;;;;;;4218839;28;1906;-60
2022/03/06 12:00:38;;;;;;;;;;;;;;;;;;4218805;28;861;-59
2022/03/06 12:03:00;;;;;;;;;;;;;;;;;;4218770;28;831;-59
2022/03/06 12:05:22;;;;;;;;;;;;;;;;;;4218359;28;1043;-59
2022/03/06 12:07:43;;;;;;;;;;;;;;;;;;4217330;28;1158;-59
2022/03/06 12:10:04;;;;;;;;;;;;;;;;;;4218746;28;810;-59
2022/03/06 12:12:27;;;;;;;;;;;;;;;;;;4214924;28;2730;-59
2022/03/06 12:14:49;;;;;;;;;;;;;;;;;;4202955;28;1112;-59
2022/03/06 12:17:11;;;;;;;;;;;;;;;;;;4211251;28;1902;-60
2022/03/06 12:19:33;;;;;;;;;;;;;;;;;;4207061;28;1179;-59
2022/03/06 12:21:55;;;;;;;;;;;;;;;;;;4215777;28;1237;-60
2022/03/06 12:24:17;;;;;;;;;;;;;;;;;;4218852;28;932;-59
2022/03/06 12:26:39;;;;;;;;;;;;;;;;;;4218671;28;924;-59
2022/03/06 12:29:02;;;;;;;;;;;;;;;;;;4222831;28;1018;-59
2022/03/06 12:31:23;;;;;;;;;;;;;;;;;;4222126;28;1425;-60
2022/03/06 12:33:45;;;;;;;;;;;;;;;;;;4207806;28;951;-59
2022/03/06 12:36:06;;;;;;;;;;;;;;;;;;4207497;28;833;-59
2022/03/06 12:38:26;;;;;;;;;;;;;;;;;;4221588;28;1985;-60
2022/03/06 12:40:48;;;;;;;;;;;;;;;;;;4189788;28;1202;-59
2022/03/06 12:43:09;;;;;;;;;;;;;;;;;;4190534;28;994;-59
2022/03/06 12:45:29;;;;;;;;;;;;;;;;;;4190991;28;955;-59
2022/03/06 12:47:51;;;;;;;;;;;;;;;;;;4190845;28;1025;-59
2022/03/06 12:50:12;;;;;;;;;;;;;;;;;;4191134;28;842;-58
2022/03/06 12:52:33;;;;;;;;;;;;;;;;;;4190803;28;1044;-59
2022/03/06 12:54:54;;;;;;;;;;;;;;;;;;4190661;28;941;-58
2022/03/06 12:57:16;;;;;;;;;;;;;;;;;;4190838;28;1993;-59
2022/03/06 12:59:39;;;;;;;;;;;;;;;;;;4190623;28;912;-58
2022/03/06 13:02:00;;;;;;;;;;;;;;;;;;4173779;28;940;-58
2022/03/06 13:04:22;;;;;;;;;;;;;;;;;;4175054;28;904;-59
2022/03/06 13:06:44;;;;;;;;;;;;;;;;;;4179472;28;983;-58
2022/03/06 13:09:06;;;;;;;;;;;;;;;;;;4190598;28;1016;-59
2022/03/06 13:11:27;;;;;;;;;;;;;;;;;;4191774;28;959;-59
2022/03/06 13:13:49;;;;;;;;;;;;;;;;;;4190606;28;1283;-58
2022/03/06 13:16:14;;;;;;;;;;;;;;;;;;4191199;28;860;-58
2022/03/06 13:18:35;;;;;;;;;;;;;;;;;;4191309;28;1989;-58
2022/03/06 13:20:56;;;;;;;;;;;;;;;;;;4191538;28;984;-59
2022/03/06 13:23:18;;;;;;;;;;;;;;;;;;4175818;28;945;-59
2022/03/06 13:25:39;;;;;;;;;;;;;;;;;;4176194;28;984;-59
2022/03/06 13:28:01;;;;;;;;;;;;;;;;;;4189450;28;940;-58
2022/03/06 13:30:23;;;;;;;;;;;;;;;;;;4175651;28;955;-60
2022/03/06 13:32:44;;;;;;;;;;;;;;;;;;4175461;28;891;-59
2022/03/06 13:35:06;;;;;;;;;;;;;;;;;;4175341;28;1125;-59
2022/03/06 13:37:27;;;;;;;;;;;;;;;;;;4190837;28;1902;-59
2022/03/06 13:39:48;;;;;;;;;;;;;;;;;;4205218;28;1155;-59
2022/03/06 13:42:12;;;;;;;;;;;;;;;;;;4222556;28;1563;-58
2022/03/06 13:44:33;;;;;;;;;;;;;;;;;;4221637;28;1272;-59
2022/03/06 13:46:54;;;;;;;;;;;;;;;;;;4218745;28;1586;-59
2022/03/06 13:49:15;;;;;;;;;;;;;;;;;;4222881;28;1015;-59
2022/03/06 13:51:36;;;;;;;;;;;;;;;;;;4214035;28;1220;-59
2022/03/06 13:53:57;;;;;;;;;;;;;;;;;;4211969;28;1471;-59
2022/03/06 13:56:18;;;;;;;;;;;;;;;;;;4211947;28;1250;-59
2022/03/06 13:58:39;;;;;;;;;;;;;;;;;;4218365;28;1913;-58
2022/03/06 14:01:01;;;;;;;;;;;;;;;;;;4212489;28;1457;-58
2022/03/06 14:03:22;;;;;;;;;;;;;;;;;;4218519;28;1760;-59
2022/03/06 14:05:43;;;;;;;;;;;;;;;;;;4205700;28;1737;-59
2022/03/06 14:08:04;;;;;;;;;;;;;;;;;;4203263;28;1526;-58
2022/03/06 14:10:26;;;;;;;;;;;;;;;;;;4220979;28;862;-59
2022/03/06 14:12:46;;;;;;;;;;;;;;;;;;4207038;28;1278;-58
2022/03/06 14:15:08;;;;;;;;;;;;;;;;;;4217208;28;849;-59
2022/03/06 14:17:29;;;;;;;;;;;;;;;;;;4217341;28;1922;-59
2022/03/06 14:19:55;;;;;;;;;;;;;;;;;;4216072;28;1353;-58
2022/03/06 14:22:16;;;;;;;;;;;;;;;;;;4213809;28;1601;-59
2022/03/06 14:24:37;;;;;;;;;;;;;;;;;;4221229;28;853;-59
2022/03/06 14:26:59;;;;;;;;;;;;;;;;;;4220972;28;842;-59
2022/03/06 14:29:21;;;;;;;;;;;;;;;;;;4220943;28;1637;-59
2022/03/06 14:31:41;;;;;;;;;;;;;;;;;;4220161;28;1128;-59
2022/03/06 14:34:03;;;;;;;;;;;;;;;;;;4220442;28;870;-60
2022/03/06 14:36:25;;;;;;;;;;;;;;;;;;4220422;28;1113;-59
2022/03/06 14:38:46;;;;;;;;;;;;;;;;;;4219798;28;1929;-58
2022/03/06 14:41:07;;;;;;;;;;;;;;;;;;4221117;28;956;-59
2022/03/06 14:43:29;;;;;;;;;;;;;;;;;;4206057;28;1175;-58
2022/03/06 14:45:50;;;;;;;;;;;;;;;;;;4212101;28;981;-59
2022/03/06 14:48:11;;;;;;;;;;;;;;;;;;4219396;28;1035;-59
2022/03/06 14:50:33;;;;;;;;;;;;;;;;;;4210968;28;1005;-58
2022/03/06 14:52:55;;;;;;;;;;;;;;;;;;4213852;28;1148;-60
2022/03/06 14:55:16;;;;;;;;;;;;;;;;;;4186688;28;1021;-59
2022/03/06 14:57:39;;;;;;;;;;;;;;;;;;4199021;28;1989;-59
2022/03/06 15:00:00;;;;;;;;;;;;;;;;;;4212624;28;1428;-58
2022/03/06 15:02:24;;;;;;;;;;;;;;;;;;4218080;28;1713;-58
2022/03/06 15:04:46;;;;;;;;;;;;;;;;;;4215363;28;1515;-59
2022/03/06 15:07:10;;;;;;;;;;;;;;;;;;4186930;28;1703;-58
2022/03/06 15:09:31;;;;;;;;;;;;;;;;;;4217838;28;1431;-58
2022/03/06 15:11:52;;;;;;;;;;;;;;;;;;4204887;28;937;-59
2022/03/06 15:14:13;;;;;;;;;;;;;;;;;;4203743;28;927;-59
2022/03/06 15:16:34;;;;;;;;;;;;;;;;;;4203570;28;857;-58
2022/03/06 15:18:58;;;;;;;;;;;;;;;;;;4202526;28;1910;-59
2022/03/06 15:21:19;;;;;;;;;;;;;;;;;;4218653;28;1062;-58
2022/03/06 15:23:40;;;;;;;;;;;;;;;;;;4199759;28;1274;-59
2022/03/06 15:26:01;;;;;;;;;;;;;;;;;;4188962;28;975;-59
2022/03/06 15:28:26;;;;;;;;;;;;;;;;;;4204653;28;1005;-58
2022/03/06 15:30:47;;;;;;;;;;;;;;;;;;4203440;28;839;-59
2022/03/06 15:33:08;;;;;;;;;;;;;;;;;;4204484;28;1496;-59
2022/03/06 15:35:30;;;;;;;;;;;;;;;;;;4210686;28;1457;-59
2022/03/06 15:37:52;;;;;;;;;;;;;;;;;;4217032;28;1905;-59
2022/03/06 15:40:13;;;;;;;;;;;;;;;;;;4204895;28;1302;-60
2022/03/06 15:42:34;;;;;;;;;;;;;;;;;;4219523;28;983;-59
2022/03/06 15:44:56;;;;;;;;;;;;;;;;;;4219916;28;837;-59
2022/03/06 15:47:19;;;;;;;;;;;;;;;;;;4220071;28;932;-59
2022/03/06 15:49:40;;;;;;;;;;;;;;;;;;4204735;28;1062;-59
2022/03/06 15:52:01;;;;;;;;;;;;;;;;;;4219864;28;1009;-59
2022/03/06 15:54:22;;;;;;;;;;;;;;;;;;4219799;28;911;-58
2022/03/06 15:56:44;;;;;;;;;;;;;;;;;;4219095;28;1183;-59
2022/03/06 15:59:05;;;;;;;;;;;;;;;;;;4219903;28;1982;-60
2022/03/06 16:01:26;;;;;;;;;;;;;;;;;;4219528;28;1436;-59
2022/03/06 16:03:49;;;;;;;;;;;;;;;;;;4219852;28;1100;-59
2022/03/06 16:06:09;;;;;;;;;;;;;;;;;;4220485;28;940;-60
2022/03/06 16:08:31;;;;;;;;;;;;;;;;;;4220246;28;941;-58
2022/03/06 16:10:55;;;;;;;;;;;;;;;;;;4220289;28;903;-60
2022/03/06 16:13:15;;;;;;;;;;;;;;;;;;4204739;28;1030;-59
2022/03/06 16:15:37;;;;;;;;;;;;;;;;;;4220026;28;1121;-59
2022/03/06 16:17:59;;;;;;;;;;;;;;;;;;4220632;28;871;-59
2022/03/06 16:20:19;;;;;;;;;;;;;;;;;;4219498;28;1231;-58
2022/03/06 16:22:40;;;;;;;;;;;;;;;;;;4207639;28;1150;-59
2022/03/06 16:25:01;;;;;;;;;;;;;;;;;;4215527;28;2646;-59
2022/03/06 16:27:22;;;;;;;;;;;;;;;;;;4202934;28;2017;-59
2022/03/06 16:29:43;;;;;;;;;;;;;;;;;;4215595;28;1328;-58